createdAt,value
2018-09-30T00:01:09.485Z,54.00
2018-09-30T00:03:42.715Z,54.00
2018-09-30T00:06:11.656Z,54.30
2018-09-30T00:08:40.900Z,54.50
2018-09-30T00:11:09.837Z,54.60
2018-09-30T00:13:38.578Z,54.10
2018-09-30T00:16:07.163Z,53.90
2018-09-30T00:18:35.733Z,53.70
2018-09-30T00:21:04.523Z,54.00
2018-09-30T00:23:38.439Z,54.30
2018-09-30T00:26:12.448Z,54.30
2018-09-30T00:28:43.177Z,54.30
2018-09-30T00:31:12.565Z,54.30
2018-09-30T00:33:46.277Z,54.10
2018-09-30T00:36:15.194Z,53.80
2018-09-30T00:38:43.891Z,53.60
2018-09-30T00:41:14.228Z,53.70
2018-09-30T00:43:43.414Z,53.90
2018-09-30T00:46:14.246Z,54.10
2018-09-30T00:48:43.209Z,54.10
2018-09-30T00:51:12.997Z,54.00
2018-09-30T00:53:42.575Z,53.90
2018-09-30T00:56:11.147Z,53.90
2018-09-30T00:58:39.902Z,54.20
2018-09-30T01:01:08.592Z,54.50
2018-09-30T01:03:37.234Z,54.50
2018-09-30T01:06:05.825Z,54.60
2018-09-30T01:08:34.417Z,54.50
2018-09-30T01:11:03.612Z,54.80
2018-09-30T01:13:32.267Z,55.00
2018-09-30T01:16:00.902Z,54.80
2018-09-30T01:18:29.631Z,54.60
2018-09-30T01:20:58.323Z,54.20
2018-09-30T01:23:27.029Z,54.00
2018-09-30T01:25:56.690Z,54.00
2018-09-30T01:28:25.315Z,54.70
2018-09-30T01:30:54.209Z,55.00
2018-09-30T01:33:23.524Z,54.90
2018-09-30T01:35:52.106Z,55.10
2018-09-30T01:38:20.655Z,55.40
2018-09-30T01:40:49.294Z,55.10
2018-09-30T01:43:17.959Z,55.70
2018-09-30T01:45:46.673Z,55.90
2018-09-30T01:48:15.299Z,56.40
2018-09-30T01:50:45.002Z,56.50
2018-09-30T01:53:13.616Z,56.70
2018-09-30T01:55:42.870Z,57.00
2018-09-30T01:58:11.439Z,57.10
2018-09-30T02:00:40.124Z,57.00
2018-09-30T02:03:08.775Z,56.90
2018-09-30T02:05:39.865Z,56.80
2018-09-30T02:08:08.595Z,56.80
2018-09-30T02:10:37.276Z,56.90
2018-09-30T02:13:05.976Z,56.50
2018-09-30T02:15:34.548Z,56.40
2018-09-30T02:18:03.344Z,56.40
2018-09-30T02:20:32.026Z,56.90
2018-09-30T02:23:01.595Z,57.10
2018-09-30T02:25:30.867Z,57.10
2018-09-30T02:27:59.513Z,56.90
2018-09-30T02:30:29.870Z,57.00
2018-09-30T02:32:59.931Z,57.00
2018-09-30T02:35:28.581Z,57.50
2018-09-30T02:37:57.205Z,57.80
2018-09-30T02:40:25.808Z,58.30
2018-09-30T02:42:54.451Z,58.30
2018-09-30T02:45:23.056Z,58.50
2018-09-30T02:47:51.711Z,58.40
2018-09-30T02:50:20.336Z,58.40
2018-09-30T02:52:48.926Z,58.70
2018-09-30T02:55:17.715Z,58.50
2018-09-30T02:57:47.116Z,59.50
2018-09-30T03:00:17.341Z,58.80
2018-09-30T03:02:45.912Z,59.10
2018-09-30T03:05:14.612Z,59.20
2018-09-30T03:07:48.308Z,59.00
2018-09-30T03:10:16.926Z,58.90
2018-09-30T03:12:46.363Z,59.30
2018-09-30T03:15:15.942Z,59.60
2018-09-30T03:17:44.929Z,59.50
2018-09-30T03:20:14.361Z,59.70
2018-09-30T03:22:43.325Z,59.60
2018-09-30T03:25:11.880Z,59.90
2018-09-30T03:27:42.904Z,59.80
2018-09-30T03:30:13.595Z,59.80
2018-09-30T03:40:15.757Z,60.30
2018-09-30T03:42:44.323Z,60.00
2018-09-30T03:45:13.510Z,60.70
2018-09-30T03:47:43.848Z,60.40
2018-09-30T03:50:12.518Z,60.60
2018-09-30T03:52:41.010Z,60.90
2018-09-30T03:55:09.656Z,60.80
2018-09-30T03:57:40.396Z,60.90
2018-09-30T04:00:11.487Z,61.30
2018-09-30T04:02:42.742Z,60.80
2018-09-30T04:05:13.166Z,60.90
2018-09-30T04:07:51.373Z,60.70
2018-09-30T04:10:32.265Z,60.70
2018-09-30T04:13:08.936Z,60.80
2018-09-30T04:15:39.577Z,61.00
2018-09-30T04:18:10.069Z,61.20
2018-09-30T04:20:40.330Z,61.70
2018-09-30T04:23:11.183Z,61.70
2018-09-30T04:25:44.160Z,62.10
2018-09-30T04:28:14.878Z,62.00
2018-09-30T04:30:47.822Z,61.70
2018-09-30T04:33:21.635Z,61.90
2018-09-30T04:35:54.264Z,61.90
2018-09-30T04:38:29.213Z,61.70
2018-09-30T04:41:05.029Z,61.70
2018-09-30T04:43:37.072Z,61.70
2018-09-30T04:46:06.085Z,61.90
2018-09-30T04:48:35.739Z,61.60
2018-09-30T04:51:05.435Z,62.00
2018-09-30T04:53:34.297Z,62.20
2018-09-30T04:56:03.186Z,62.10
2018-09-30T04:58:32.057Z,62.30
2018-09-30T05:01:01.090Z,62.80
2018-09-30T05:03:29.941Z,62.40
2018-09-30T05:05:58.725Z,62.30
2018-09-30T05:08:27.644Z,62.20
2018-09-30T05:10:57.351Z,62.50
2018-09-30T05:13:32.999Z,62.10
2018-09-30T05:16:02.034Z,62.30
2018-09-30T05:18:30.874Z,63.00
2018-09-30T05:20:59.804Z,61.90
2018-09-30T05:23:29.684Z,62.00
2018-09-30T05:25:58.581Z,62.30
2018-09-30T05:28:27.474Z,62.40
2018-09-30T05:34:00.986Z,62.10
2018-09-30T05:36:29.876Z,62.10
2018-09-30T05:39:00.006Z,62.30
2018-09-30T05:41:29.080Z,62.20
2018-09-30T05:43:57.774Z,62.30
2018-09-30T05:46:26.558Z,62.00
2018-09-30T05:48:55.443Z,62.20
2018-09-30T05:51:24.548Z,61.70
2018-09-30T05:53:53.511Z,61.70
2018-09-30T05:56:22.552Z,61.50
2018-09-30T05:59:19.603Z,61.30
2018-09-30T06:12:05.479Z,61.60
2018-09-30T06:14:44.918Z,61.90
2018-09-30T06:17:25.113Z,61.50
2018-09-30T06:19:55.337Z,61.60
2018-09-30T06:22:24.014Z,61.10
2018-09-30T06:24:52.751Z,61.40
2018-09-30T06:27:22.240Z,61.70
2018-09-30T06:29:50.899Z,62.00
2018-09-30T06:32:19.506Z,62.30
2018-09-30T06:46:51.233Z,61.60
2018-09-30T06:49:19.805Z,61.20
2018-09-30T06:51:48.358Z,61.00
2018-09-30T06:54:16.998Z,61.40
2018-09-30T06:56:46.274Z,61.20
2018-09-30T06:59:15.005Z,60.90
2018-09-30T07:01:43.672Z,60.60
2018-09-30T07:04:12.634Z,60.40
2018-09-30T07:06:41.237Z,60.10
2018-09-30T07:09:10.895Z,59.90
2018-09-30T07:11:39.430Z,59.90
2018-09-30T07:14:08.054Z,60.00
2018-09-30T07:16:36.697Z,60.00
2018-09-30T07:19:06.763Z,59.70
2018-09-30T07:21:39.300Z,59.20
2018-09-30T07:24:08.009Z,59.00
2018-09-30T07:26:37.240Z,59.00
2018-09-30T07:29:06.536Z,58.60
2018-09-30T07:31:35.212Z,57.90
2018-09-30T07:34:04.813Z,57.60
2018-09-30T07:36:34.335Z,57.30
2018-09-30T07:39:03.321Z,56.80
2018-09-30T07:41:33.578Z,56.70
2018-09-30T07:47:24.490Z,56.30
2018-09-30T07:50:03.425Z,56.00
2018-09-30T07:52:47.178Z,55.30
2018-09-30T07:55:25.219Z,55.40
2018-09-30T07:57:54.212Z,55.50
2018-09-30T08:00:34.540Z,55.40
2018-09-30T08:03:09.643Z,55.30
2018-09-30T08:05:44.693Z,55.30
2018-09-30T08:08:13.427Z,55.30
2018-09-30T08:10:43.016Z,55.30
2018-09-30T08:16:14.873Z,55.10
2018-09-30T08:18:50.356Z,54.30
2018-09-30T08:21:22.783Z,53.60
2018-09-30T08:23:54.697Z,53.60
2018-09-30T08:26:23.549Z,53.30
2018-09-30T08:31:49.957Z,53.10
2018-09-30T08:34:20.552Z,53.00
2018-09-30T08:36:50.155Z,53.00
2018-09-30T08:39:19.768Z,52.70
2018-09-30T08:41:49.531Z,52.80
2018-09-30T08:44:18.240Z,52.60
2018-09-30T08:46:47.610Z,52.50
2018-09-30T08:49:16.246Z,52.20
2018-09-30T08:51:46.628Z,52.50
2018-09-30T08:54:15.397Z,52.50
2018-09-30T08:56:44.041Z,52.20
2018-09-30T08:59:12.678Z,51.70
2018-09-30T09:01:41.197Z,51.50
2018-09-30T09:04:10.538Z,50.70
2018-09-30T09:06:39.189Z,50.30
2018-09-30T09:09:12.857Z,49.80
2018-09-30T09:11:42.571Z,49.80
2018-09-30T09:14:11.134Z,50.10
2018-09-30T09:16:40.402Z,50.10
2018-09-30T09:19:12.628Z,50.40
2018-09-30T09:21:47.581Z,49.70
2018-09-30T09:24:16.201Z,49.60
2018-09-30T09:26:44.789Z,49.80
2018-09-30T09:29:13.507Z,49.60
2018-09-30T09:31:43.343Z,49.50
2018-09-30T09:35:07.765Z,49.20
2018-09-30T09:37:37.853Z,49.10
2018-09-30T09:40:08.093Z,48.90
2018-09-30T09:42:41.972Z,48.80
2018-09-30T09:45:10.766Z,49.20
2018-09-30T09:47:39.508Z,49.30
2018-09-30T09:50:09.018Z,49.40
2018-09-30T09:52:37.991Z,48.90
2018-09-30T09:55:06.796Z,48.70
2018-09-30T09:57:35.856Z,48.30
2018-09-30T10:02:55.525Z,47.90
2018-09-30T10:09:46.635Z,46.90
2018-09-30T10:12:15.720Z,46.60
2018-09-30T10:14:45.608Z,47.40
2018-09-30T10:17:27.960Z,47.20
2018-09-30T10:25:43.854Z,47.10
2018-09-30T10:28:12.499Z,47.00
2018-09-30T10:30:41.002Z,46.40
2018-09-30T10:33:10.678Z,46.20
2018-09-30T10:35:39.767Z,46.00
2018-09-30T10:38:08.732Z,45.90
2018-09-30T10:40:37.456Z,45.50
2018-09-30T10:43:06.379Z,46.10
2018-09-30T10:45:35.610Z,45.00
2018-09-30T10:48:04.649Z,44.50
2018-09-30T10:50:36.602Z,44.20
2018-09-30T10:53:21.665Z,44.10
2018-09-30T10:55:58.893Z,44.10
2018-09-30T10:58:42.388Z,43.80
2018-09-30T11:01:11.307Z,43.10
2018-09-30T11:03:40.005Z,42.70
2018-09-30T11:06:10.775Z,41.70
2018-09-30T11:08:41.362Z,42.40
2018-09-30T11:11:12.662Z,42.20
2018-09-30T11:39:06.648Z,40.60
2018-09-30T11:42:00.187Z,41.70
2018-09-30T11:47:33.628Z,42.00
2018-09-30T11:50:13.833Z,41.70
2018-09-30T11:53:05.311Z,41.70
2018-09-30T11:55:43.571Z,41.70
2018-09-30T11:58:12.666Z,41.50
2018-09-30T12:00:53.612Z,41.30
2018-09-30T12:03:24.035Z,41.70
2018-09-30T12:05:56.451Z,41.40
2018-09-30T12:08:30.215Z,41.00
2018-09-30T12:11:00.171Z,40.80
2018-09-30T12:17:01.335Z,40.10
2018-09-30T12:19:30.028Z,40.50
2018-09-30T12:22:02.030Z,40.40
2018-09-30T12:24:32.327Z,40.50
2018-09-30T12:27:01.969Z,40.20
2018-09-30T12:29:37.758Z,40.20
2018-09-30T12:32:07.983Z,40.40
2018-09-30T12:34:37.291Z,40.30
2018-09-30T12:37:25.876Z,40.30
2018-09-30T12:39:56.641Z,40.30
2018-09-30T12:42:25.605Z,40.10
2018-09-30T12:44:57.145Z,39.90
2018-09-30T12:47:31.292Z,40.10
2018-09-30T12:50:03.229Z,40.40
2018-09-30T12:52:34.837Z,39.20
2018-09-30T12:55:05.408Z,38.60
2018-09-30T12:57:41.576Z,39.10
2018-09-30T13:00:12.568Z,39.10
2018-09-30T13:02:47.096Z,38.80
2018-09-30T13:05:20.984Z,39.10
2018-09-30T13:07:50.510Z,39.20
2018-09-30T13:15:53.623Z,39.10
2018-09-30T13:18:55.335Z,39.50
2018-09-30T13:24:25.080Z,39.40
2018-09-30T13:27:03.528Z,39.60
2018-09-30T13:29:46.592Z,39.10
2018-09-30T13:32:21.732Z,39.20
2018-09-30T13:34:50.415Z,39.30
2018-09-30T13:37:20.573Z,39.50
2018-09-30T13:39:53.611Z,39.30
2018-09-30T13:42:32.496Z,39.40
2018-09-30T13:45:04.959Z,39.40
2018-09-30T13:55:42.138Z,39.50
2018-09-30T13:58:10.894Z,39.30
2018-09-30T14:04:46.141Z,39.50
2018-09-30T14:07:15.502Z,39.90
2018-09-30T14:09:44.138Z,40.30
2018-09-30T14:12:23.525Z,40.00
2018-09-30T14:14:55.425Z,40.00
2018-09-30T14:17:29.385Z,39.60
2018-09-30T14:20:00.231Z,39.20
2018-09-30T14:22:36.996Z,39.40
2018-09-30T14:25:08.283Z,39.40
2018-09-30T14:27:49.898Z,39.50
2018-09-30T14:30:38.700Z,39.70
2018-09-30T14:33:07.626Z,39.90
2018-09-30T14:35:36.271Z,39.70
2018-09-30T14:38:04.991Z,39.70
2018-09-30T14:40:34.594Z,40.60
2018-09-30T14:43:03.305Z,39.90
2018-09-30T14:45:32.345Z,39.60
2018-09-30T14:48:01.153Z,39.50
2018-09-30T14:50:30.694Z,39.50
2018-09-30T14:52:59.318Z,39.30
2018-09-30T14:55:28.089Z,38.70
2018-09-30T14:57:57.208Z,38.70
2018-09-30T15:00:25.851Z,38.80
2018-09-30T15:02:54.470Z,38.30
2018-09-30T15:05:23.036Z,37.60
2018-09-30T15:08:03.398Z,37.90
2018-09-30T15:10:32.104Z,37.80
2018-09-30T15:13:28.805Z,37.70
2018-09-30T15:15:57.486Z,37.80
2018-09-30T15:18:26.039Z,37.70
2018-09-30T15:20:54.791Z,37.70
2018-09-30T15:23:23.345Z,37.30
2018-09-30T15:25:52.072Z,38.00
2018-09-30T15:28:22.609Z,38.00
2018-09-30T15:30:51.769Z,39.10
2018-09-30T15:33:21.541Z,38.10
2018-09-30T15:36:30.566Z,38.20
2018-09-30T15:38:59.168Z,38.10
2018-09-30T15:41:28.580Z,38.00
2018-09-30T15:43:57.153Z,38.40
2018-09-30T15:46:25.843Z,38.30
2018-09-30T15:48:55.534Z,38.40
2018-09-30T15:51:24.129Z,38.60
2018-09-30T15:53:52.709Z,38.20
2018-09-30T15:56:21.334Z,38.10
2018-09-30T15:58:49.881Z,38.00
2018-09-30T16:01:18.551Z,37.90
2018-09-30T16:03:47.746Z,38.00
2018-09-30T16:06:16.394Z,38.00
2018-09-30T16:08:45.031Z,38.10
2018-09-30T16:11:13.719Z,38.00
2018-09-30T16:13:42.974Z,38.20
2018-09-30T16:16:13.073Z,38.10
2018-09-30T16:18:41.802Z,38.30
2018-09-30T16:21:10.474Z,38.20
2018-09-30T16:23:39.128Z,38.60
2018-09-30T16:26:12.187Z,38.90
2018-09-30T16:28:42.243Z,39.50
2018-09-30T16:31:10.900Z,38.80
2018-09-30T16:33:39.720Z,39.10
2018-09-30T16:36:09.003Z,39.30
2018-09-30T16:38:37.773Z,39.60
2018-09-30T16:41:06.996Z,39.90
2018-09-30T16:51:32.640Z,40.60
2018-09-30T16:54:01.208Z,41.60
2018-09-30T16:56:30.644Z,41.90
2018-09-30T17:14:07.414Z,42.20
2018-09-30T17:16:36.099Z,42.80
2018-09-30T17:19:04.700Z,42.70
2018-09-30T17:21:33.216Z,43.20
2018-09-30T17:24:01.852Z,43.20
2018-09-30T17:26:30.413Z,43.40
2018-09-30T17:29:01.371Z,43.60
2018-09-30T17:34:10.328Z,43.90
2018-09-30T17:36:39.673Z,44.20
2018-09-30T17:39:09.381Z,44.30
2018-09-30T17:41:38.159Z,44.50
2018-09-30T17:44:07.241Z,44.70
2018-09-30T17:46:35.844Z,44.70
2018-09-30T17:49:05.830Z,44.80
2018-09-30T17:51:51.509Z,44.80
2018-09-30T17:54:23.204Z,44.80
2018-09-30T17:56:52.215Z,44.80
2018-09-30T17:59:43.940Z,44.90
2018-09-30T18:02:24.814Z,44.90
2018-09-30T18:05:30.161Z,44.70
2018-09-30T18:09:03.742Z,45.00
2018-09-30T18:11:35.627Z,44.30
2018-09-30T18:14:14.922Z,44.80
2018-09-30T18:17:01.959Z,44.80
2018-09-30T18:25:57.982Z,45.60
2018-09-30T18:28:28.933Z,44.60
2018-09-30T18:31:10.635Z,44.60
2018-09-30T18:37:53.539Z,44.70
2018-09-30T18:44:51.342Z,44.80
2018-09-30T19:54:02.989Z,45.30
2018-09-30T19:56:31.625Z,46.30
2018-09-30T19:59:01.339Z,46.20
2018-09-30T20:01:31.146Z,46.40
2018-09-30T20:04:01.086Z,46.60
2018-09-30T20:06:29.728Z,46.60
2018-09-30T20:08:59.262Z,46.60
2018-09-30T20:11:29.079Z,46.70
2018-09-30T20:13:57.901Z,46.70
2018-09-30T20:16:26.773Z,46.50
2018-09-30T20:18:55.565Z,46.50
2018-09-30T20:21:25.528Z,46.60
2018-09-30T20:23:56.559Z,46.50
2018-09-30T20:26:25.434Z,46.60
2018-09-30T20:28:54.980Z,47.20
2018-09-30T20:31:24.387Z,47.70
2018-09-30T20:33:53.172Z,47.90
2018-09-30T20:36:22.877Z,48.40
2018-09-30T20:38:51.597Z,48.90
2018-09-30T20:41:21.102Z,49.20
2018-09-30T20:43:50.840Z,49.60
2018-09-30T20:46:29.418Z,49.70
2018-09-30T20:48:59.215Z,49.90
2018-09-30T20:51:28.785Z,50.10
2018-09-30T20:59:57.643Z,51.20
2018-09-30T21:02:39.952Z,51.50
2018-09-30T21:12:13.639Z,51.70
2018-09-30T21:14:45.559Z,52.00
2018-09-30T21:17:14.360Z,53.00
2018-09-30T21:19:44.881Z,53.10
2018-09-30T21:22:15.108Z,53.50
2018-09-30T21:24:43.886Z,53.50
2018-09-30T21:27:12.646Z,53.80
2018-09-30T21:29:44.183Z,54.10
2018-09-30T21:38:45.357Z,54.20
2018-09-30T21:44:58.474Z,55.30
2018-09-30T21:53:05.925Z,55.50
2018-09-30T21:59:16.592Z,55.80
